Grizzly Air Cargo 5371


PACD
Cold Bay Airport
Cold Bay, Alaska, US
PAKN
King Salmon Airport
King Salmon, Alaska, US

Activity Log

Date Flight Route Aircraft Duration
No Flights Yet

Route Details

Aircraft Information
Primary: Saab 340AF
Backup: Not Available
Route Data
Distance: 302nm
Sched. Duration: 1h 39m
Avg. Duration: 0h 00m (-140m)
Times Flown: 0
Recm'd Route: CDB J115 AKN
Planned Altitude: 25,000ft
Origin Wx: PACD 310704Z AUTO 15021G26KT 5SM UP BR OVC016 01/M01 A2990 RMK AO2 PK WND 15026/0703 P0000 T00061006 TSNO
Dest. Wx: PAKN 310654Z 36004KT 10SM SCT230 M13/M16 A3006 RMK AO2 SLP179 T11331161
Notes:

Financial History
Total Freight: 0lbs
Average Load: 0lbs/flt
Fuel Used: 0lbs
Avg. Fuel Used: 0lbs/flt
Fuel Expense: $0
Avg. Fuel Expense: $0
Avg. Fuel Cost: $0/lbs
Total Gross Income: $0
Pilot Pay: $0
Total Expenses: $0
Total Revenue: $0
Average Revenue: $0